Time;durP1;ratioP1;P1;durP2;ratioP2;P2;SDS_P1;SDS_P2;PMS_P1;PMS_P2;Temp;Humidity;BMP_temperature;BMP_pressure;BME280_temperature;BME280_humidity;BME280_pressure;Samples;Min_cycle;Max_cycle;Signal;HPM_P1;HPM_P2
2022/07/14 00:01:15;;;;;;;8.20;2.03;;;;;;;;;;5117547;27;20538;-46
2022/07/14 00:03:40;;;;;;;3.22;2.40;;;;;;;;;;5115271;28;20314;-45
2022/07/14 00:06:05;;;;;;;2.38;1.63;;;;;;;;;;5113707;28;20529;-44
2022/07/14 00:08:31;;;;;;;2.90;1.48;;;;;;;;;;5114026;28;20504;-43
2022/07/14 00:10:56;;;;;;;3.13;2.33;;;;;;;;;;5116533;28;20043;-40
2022/07/14 00:13:21;;;;;;;10.50;2.47;;;;;;;;;;5115358;27;20053;-41
2022/07/14 00:15:47;;;;;;;1.88;1.65;;;;;;;;;;5111462;28;20486;-39
2022/07/14 00:18:12;;;;;;;2.35;1.95;;;;;;;;;;5110365;27;20048;-41
2022/07/14 00:20:37;;;;;;;5.82;1.67;;;;;;;;;;5110652;28;20047;-41
2022/07/14 00:23:03;;;;;;;4.60;2.25;;;;;;;;;;5113096;27;20058;-42
2022/07/14 00:25:28;;;;;;;2.60;2.08;;;;;;;;;;5112713;27;20036;-41
2022/07/14 00:27:54;;;;;;;2.08;1.50;;;;;;;;;;5114985;27;20459;-40
2022/07/14 00:30:20;;;;;;;3.15;2.13;;;;;;;;;;5115412;27;20046;-40
2022/07/14 00:32:45;;;;;;;5.35;2.13;;;;;;;;;;5113855;28;20654;-40
2022/07/14 00:35:11;;;;;;;2.78;1.95;;;;;;;;;;5114619;27;20535;-39
2022/07/14 00:37:36;;;;;;;1.55;1.38;;;;;;;;;;5113083;27;20974;-41
2022/07/14 00:40:04;;;;;;;7.05;2.28;;;;;;;;;;5117566;27;20417;-40
2022/07/14 00:42:37;;;;;;;3.88;2.40;;;;;;;;;;5116760;27;20045;-42
2022/07/14 00:45:03;;;;;;;5.05;2.17;;;;;;;;;;5108398;28;20052;-40
2022/07/14 00:47:29;;;;;;;2.90;2.03;;;;;;;;;;5108397;27;20040;-42
2022/07/14 00:49:55;;;;;;;3.20;2.63;;;;;;;;;;5116754;27;20402;-43
2022/07/14 00:52:22;;;;;;;4.10;2.72;;;;;;;;;;5115332;27;20290;-42
2022/07/14 00:54:47;;;;;;;4.28;2.17;;;;;;;;;;5115300;27;20563;-40
2022/07/14 00:57:13;;;;;;;3.60;2.33;;;;;;;;;;5109377;28;20089;-40
2022/07/14 00:59:38;;;;;;;3.03;2.00;;;;;;;;;;5109215;27;20079;-41
2022/07/14 01:02:03;;;;;;;6.13;2.72;;;;;;;;;;5113262;27;20047;-40
2022/07/14 01:04:29;;;;;;;2.33;2.03;;;;;;;;;;5114150;27;20085;-40
2022/07/14 01:06:54;;;;;;;3.30;2.28;;;;;;;;;;5112735;27;20059;-42
2022/07/14 01:09:19;;;;;;;4.43;2.80;;;;;;;;;;5115188;27;20032;-41
2022/07/14 01:11:44;;;;;;;2.90;2.20;;;;;;;;;;5114199;27;20051;-46
2022/07/14 01:14:10;;;;;;;2.30;1.90;;;;;;;;;;5113685;27;20466;-44
2022/07/14 01:16:35;;;;;;;8.25;2.92;;;;;;;;;;5113560;27;20475;-40
2022/07/14 01:19:00;;;;;;;2.45;2.25;;;;;;;;;;5116122;27;20035;-43
2022/07/14 01:21:26;;;;;;;2.75;1.95;;;;;;;;;;5112314;27;20052;-40
2022/07/14 01:23:51;;;;;;;3.10;2.15;;;;;;;;;;5112734;27;20555;-40
2022/07/14 01:26:16;;;;;;;3.88;2.10;;;;;;;;;;5111311;27;20498;-40
2022/07/14 01:28:42;;;;;;;3.75;2.03;;;;;;;;;;5115712;27;20118;-41
2022/07/14 01:31:18;;;;;;;2.28;1.70;;;;;;;;;;5112643;27;20042;-42
2022/07/14 01:33:43;;;;;;;1.92;1.67;;;;;;;;;;5111713;27;20040;-42
2022/07/14 01:36:08;;;;;;;4.22;2.60;;;;;;;;;;5111945;28;20048;-42
2022/07/14 01:38:33;;;;;;;2.65;1.92;;;;;;;;;;5116206;27;20685;-41
2022/07/14 01:40:59;;;;;;;4.70;2.22;;;;;;;;;;5114479;27;20298;-40
2022/07/14 01:43:24;;;;;;;2.90;2.30;;;;;;;;;;5108190;27;20482;-40
2022/07/14 01:45:49;;;;;;;5.90;2.85;;;;;;;;;;5113009;27;20512;-42
2022/07/14 01:48:15;;;;;;;2.53;1.75;;;;;;;;;;5113630;27;20047;-40
2022/07/14 01:50:40;;;;;;;2.17;1.65;;;;;;;;;;5114151;28;20075;-40
2022/07/14 01:53:05;;;;;;;5.72;2.28;;;;;;;;;;5114167;27;20043;-40
2022/07/14 01:55:31;;;;;;;2.58;2.00;;;;;;;;;;5113901;27;20057;-40
2022/07/14 01:57:56;;;;;;;3.17;1.95;;;;;;;;;;5113344;27;20035;-42
2022/07/14 02:00:21;;;;;;;2.30;1.77;;;;;;;;;;5112411;27;20123;-40
2022/07/14 02:02:47;;;;;;;1.92;1.65;;;;;;;;;;5113047;28;20570;-45
2022/07/14 02:05:12;;;;;;;2.13;1.65;;;;;;;;;;5114264;27;20570;-42
2022/07/14 02:07:38;;;;;;;3.88;2.80;;;;;;;;;;5114158;27;20043;-41
2022/07/14 02:12:47;;;;;;;4.55;2.15;;;;;;;;;;5103828;28;20082;-40
2022/07/14 02:15:12;;;;;;;3.42;2.40;;;;;;;;;;5112724;28;20163;-40
2022/07/14 02:17:38;;;;;;;2.17;1.95;;;;;;;;;;5118079;27;20037;-45
2022/07/14 02:20:03;;;;;;;2.20;2.00;;;;;;;;;;5116266;27;20070;-42
2022/07/14 02:22:29;;;;;;;2.13;1.75;;;;;;;;;;5115872;27;20044;-41
2022/07/14 02:24:54;;;;;;;2.70;2.20;;;;;;;;;;5120738;27;20055;-43
2022/07/14 02:27:19;;;;;;;2.70;2.33;;;;;;;;;;5115118;27;20565;-40
2022/07/14 02:29:45;;;;;;;2.30;1.60;;;;;;;;;;5113865;27;20518;-41
2022/07/14 02:32:10;;;;;;;7.65;1.92;;;;;;;;;;5117511;27;20035;-42
2022/07/14 02:34:35;;;;;;;2.25;2.05;;;;;;;;;;5114304;27;20618;-42
2022/07/14 02:37:01;;;;;;;2.88;2.20;;;;;;;;;;5118982;27;20055;-41
2022/07/14 02:39:29;;;;;;;2.22;1.73;;;;;;;;;;5111131;27;20040;-40
2022/07/14 02:41:54;;;;;;;2.35;2.13;;;;;;;;;;5115427;27;20595;-40
2022/07/14 02:44:19;;;;;;;2.60;1.70;;;;;;;;;;5116778;27;20048;-42
2022/07/14 02:46:48;;;;;;;2.90;2.33;;;;;;;;;;5117450;27;20051;-40
2022/07/14 02:49:13;;;;;;;7.15;1.75;;;;;;;;;;5115565;27;20123;-40
2022/07/14 02:51:38;;;;;;;3.20;1.50;;;;;;;;;;5115444;27;20447;-41
2022/07/14 02:54:04;;;;;;;1.85;1.48;;;;;;;;;;5121529;27;20522;-42
2022/07/14 02:56:29;;;;;;;2.50;2.20;;;;;;;;;;5118529;27;20046;-40
2022/07/14 02:58:54;;;;;;;2.38;1.80;;;;;;;;;;5114567;28;20089;-40
2022/07/14 03:01:20;;;;;;;4.32;1.75;;;;;;;;;;5113421;27;20491;-40
2022/07/14 03:03:45;;;;;;;1.80;1.20;;;;;;;;;;5115782;27;20193;-42
2022/07/14 03:06:11;;;;;;;3.60;2.30;;;;;;;;;;5115477;27;20039;-42
2022/07/14 03:08:37;;;;;;;3.53;2.88;;;;;;;;;;5115756;27;20043;-42
2022/07/14 03:11:02;;;;;;;8.68;3.08;;;;;;;;;;5114761;27;20569;-40
2022/07/14 03:13:28;;;;;;;3.72;3.03;;;;;;;;;;5117734;27;20058;-40
2022/07/14 03:15:53;;;;;;;2.78;2.55;;;;;;;;;;5112872;28;20054;-42
2022/07/14 03:18:18;;;;;;;5.13;2.75;;;;;;;;;;5115894;28;20048;-39
2022/07/14 03:20:43;;;;;;;2.08;1.88;;;;;;;;;;5112198;28;20051;-42
2022/07/14 03:23:09;;;;;;;2.38;2.08;;;;;;;;;;5113164;27;20180;-40
2022/07/14 03:25:34;;;;;;;3.35;2.70;;;;;;;;;;5115686;27;20026;-39
2022/07/14 03:27:59;;;;;;;4.55;3.78;;;;;;;;;;5116044;27;20061;-42
2022/07/14 03:30:25;;;;;;;2.53;1.92;;;;;;;;;;5116139;27;20687;-44
2022/07/14 03:32:50;;;;;;;2.10;1.90;;;;;;;;;;5115366;27;20096;-39
2022/07/14 03:35:15;;;;;;;2.42;1.73;;;;;;;;;;5116466;27;20482;-40
2022/07/14 03:37:41;;;;;;;3.78;2.50;;;;;;;;;;5117572;27;20051;-40
2022/07/14 03:40:07;;;;;;;2.90;2.25;;;;;;;;;;5116284;27;20040;-41
2022/07/14 03:42:32;;;;;;;3.28;2.90;;;;;;;;;;5114196;27;20043;-40
2022/07/14 03:44:57;;;;;;;3.25;2.53;;;;;;;;;;5116014;27;20039;-42
2022/07/14 03:47:23;;;;;;;5.63;2.17;;;;;;;;;;5120078;27;20390;-41
2022/07/14 03:49:49;;;;;;;4.10;2.22;;;;;;;;;;5114184;27;20507;-40
2022/07/14 03:52:14;;;;;;;2.00;1.83;;;;;;;;;;5113846;27;20047;-40
2022/07/14 03:54:42;;;;;;;2.85;2.08;;;;;;;;;;5117353;27;20043;-43
2022/07/14 03:57:08;;;;;;;3.50;2.75;;;;;;;;;;5117473;27;20054;-40
2022/07/14 03:59:39;;;;;;;2.35;1.98;;;;;;;;;;5114981;27;20040;-43
2022/07/14 04:02:05;;;;;;;10.15;2.25;;;;;;;;;;5115859;27;20039;-42
2022/07/14 04:04:30;;;;;;;2.63;1.98;;;;;;;;;;5116872;28;20043;-40
2022/07/14 04:06:55;;;;;;;1.75;1.45;;;;;;;;;;5114820;27;20090;-42
2022/07/14 04:09:20;;;;;;;3.13;2.53;;;;;;;;;;5114037;27;20039;-40
2022/07/14 04:11:46;;;;;;;2.47;1.70;;;;;;;;;;5112315;27;20486;-42
2022/07/14 04:14:11;;;;;;;2.95;1.85;;;;;;;;;;5113081;27;20042;-42
2022/07/14 04:16:38;;;;;;;1.90;1.63;;;;;;;;;;5111676;28;20043;-41
2022/07/14 04:19:03;;;;;;;13.38;12.18;;;;;;;;;;5112632;27;20046;-40
2022/07/14 04:21:28;;;;;;;8.13;3.65;;;;;;;;;;5111503;27;20043;-43
2022/07/14 04:23:53;;;;;;;4.65;3.47;;;;;;;;;;5115589;27;20110;-44
2022/07/14 04:26:19;;;;;;;4.38;3.47;;;;;;;;;;5114459;27;20064;-42
2022/07/14 04:28:44;;;;;;;3.20;2.53;;;;;;;;;;5112011;27;20044;-40
2022/07/14 04:31:10;;;;;;;3.67;2.88;;;;;;;;;;5106954;27;20039;-44
2022/07/14 04:33:35;;;;;;;3.65;2.50;;;;;;;;;;5118840;27;20410;-41
2022/07/14 04:36:01;;;;;;;5.60;3.58;;;;;;;;;;5114358;27;20080;-44
2022/07/14 04:38:26;;;;;;;4.82;4.25;;;;;;;;;;5112060;27;20050;-40
2022/07/14 04:40:52;;;;;;;8.70;3.63;;;;;;;;;;5109762;27;20039;-40
2022/07/14 04:43:17;;;;;;;4.97;3.03;;;;;;;;;;5112109;28;20062;-43
2022/07/14 04:45:43;;;;;;;3.90;2.80;;;;;;;;;;5113273;27;20572;-47
2022/07/14 04:48:08;;;;;;;3.58;2.72;;;;;;;;;;5115254;28;20546;-43
2022/07/14 04:53:17;;;;;;;3.63;2.63;;;;;;;;;;5114810;27;20055;-41
2022/07/14 04:55:43;;;;;;;14.00;3.03;;;;;;;;;;5112541;28;20034;-40
2022/07/14 04:58:09;;;;;;;5.45;2.45;;;;;;;;;;5111837;27;20276;-41
2022/07/14 05:00:34;;;;;;;3.70;2.10;;;;;;;;;;5113861;27;20147;-42
2022/07/14 05:02:59;;;;;;;5.43;2.83;;;;;;;;;;5114846;27;20533;-40
2022/07/14 05:05:25;;;;;;;2.70;1.92;;;;;;;;;;5108045;27;20487;-39
2022/07/14 05:07:50;;;;;;;15.52;2.83;;;;;;;;;;5109452;28;20039;-41
2022/07/14 05:10:15;;;;;;;2.80;2.05;;;;;;;;;;5107481;28;20556;-39
2022/07/14 05:12:41;;;;;;;6.00;2.88;;;;;;;;;;5113828;27;20050;-44
2022/07/14 05:15:06;;;;;;;7.32;4.30;;;;;;;;;;5115000;27;20042;-41
2022/07/14 05:17:31;;;;;;;3.15;2.85;;;;;;;;;;5113156;27;20047;-41
2022/07/14 05:19:57;;;;;;;8.27;4.93;;;;;;;;;;5110275;27;20044;-41
2022/07/14 05:22:23;;;;;;;4.93;3.80;;;;;;;;;;5113585;27;20427;-39
2022/07/14 05:24:48;;;;;;;8.18;3.25;;;;;;;;;;5117008;27;20518;-40
2022/07/14 05:27:14;;;;;;;4.45;2.75;;;;;;;;;;5113604;27;20043;-40
2022/07/14 05:29:39;;;;;;;13.35;3.88;;;;;;;;;;5111006;27;20644;-42
2022/07/14 05:32:05;;;;;;;4.97;3.75;;;;;;;;;;5120530;27;20046;-42
2022/07/14 05:34:30;;;;;;;6.07;4.00;;;;;;;;;;5117185;27;20537;-46
2022/07/14 05:36:56;;;;;;;15.40;3.55;;;;;;;;;;5114279;27;20043;-43
2022/07/14 05:39:21;;;;;;;8.57;3.60;;;;;;;;;;5113307;27;20074;-41
2022/07/14 05:41:47;;;;;;;4.13;2.35;;;;;;;;;;5117868;27;20070;-41
2022/07/14 05:44:12;;;;;;;3.90;3.35;;;;;;;;;;5115693;27;21873;-41
2022/07/14 05:46:38;;;;;;;12.10;3.53;;;;;;;;;;5111834;27;20546;-41
2022/07/14 05:49:03;;;;;;;4.60;2.92;;;;;;;;;;5113569;27;20048;-41
2022/07/14 05:51:29;;;;;;;9.27;3.00;;;;;;;;;;5115886;27;20551;-39
2022/07/14 05:53:54;;;;;;;13.65;5.65;;;;;;;;;;5109589;27;20043;-42
2022/07/14 05:56:21;;;;;;;7.82;4.35;;;;;;;;;;5108402;27;20608;-42
2022/07/14 05:58:47;;;;;;;9.10;3.60;;;;;;;;;;5112899;27;20415;-43
2022/07/14 06:01:13;;;;;;;5.00;3.05;;;;;;;;;;5113620;27;20039;-42
2022/07/14 06:03:38;;;;;;;6.10;3.78;;;;;;;;;;5117213;27;20057;-46
2022/07/14 06:06:05;;;;;;;11.00;4.95;;;;;;;;;;5111842;27;20398;-40
2022/07/14 06:08:31;;;;;;;23.40;6.28;;;;;;;;;;5105760;28;20094;-42
2022/07/14 06:10:56;;;;;;;34.05;7.93;;;;;;;;;;5115685;27;20539;-41
2022/07/14 06:13:26;;;;;;;34.42;8.57;;;;;;;;;;5113728;27;20043;-47
2022/07/14 06:15:51;;;;;;;18.35;7.35;;;;;;;;;;5113083;27;20143;-42
2022/07/14 06:18:17;;;;;;;8.70;4.15;;;;;;;;;;5114078;27;20119;-44
2022/07/14 06:20:42;;;;;;;17.95;4.85;;;;;;;;;;5113051;27;20509;-43
2022/07/14 06:23:09;;;;;;;7.75;3.13;;;;;;;;;;5111121;27;20960;-39
2022/07/14 06:25:34;;;;;;;10.52;5.22;;;;;;;;;;5106691;28;20046;-44
2022/07/14 06:28:00;;;;;;;3.88;3.40;;;;;;;;;;5114437;27;20488;-45
2022/07/14 06:30:25;;;;;;;5.05;3.97;;;;;;;;;;5114255;28;20063;-41
2022/07/14 06:32:51;;;;;;;9.63;8.82;;;;;;;;;;5112396;27;20530;-41
2022/07/14 06:35:16;;;;;;;9.35;3.10;;;;;;;;;;5113002;27;20032;-44
2022/07/14 06:37:41;;;;;;;12.65;3.20;;;;;;;;;;5111860;27;20070;-42
2022/07/14 06:40:07;;;;;;;2.63;2.15;;;;;;;;;;5111085;27;20107;-46
2022/07/14 06:42:33;;;;;;;6.93;2.50;;;;;;;;;;5115365;27;20040;-43
2022/07/14 06:44:58;;;;;;;10.55;3.50;;;;;;;;;;5110057;28;20418;-46
2022/07/14 06:47:24;;;;;;;6.53;3.30;;;;;;;;;;5114425;27;20208;-43
2022/07/14 06:49:49;;;;;;;5.95;3.13;;;;;;;;;;5114158;27;20047;-42
2022/07/14 06:52:15;;;;;;;6.63;4.97;;;;;;;;;;5111022;27;20042;-42
2022/07/14 06:54:40;;;;;;;15.73;2.95;;;;;;;;;;5112880;28;20578;-46
2022/07/14 06:57:05;;;;;;;6.20;2.85;;;;;;;;;;5114593;27;20560;-48
2022/07/14 06:59:31;;;;;;;6.55;2.25;;;;;;;;;;5110044;27;20043;-41
2022/07/14 07:01:56;;;;;;;7.30;3.05;;;;;;;;;;5116271;27;20035;-45
2022/07/14 07:04:23;;;;;;;6.80;3.45;;;;;;;;;;5115254;27;20044;-44
2022/07/14 07:06:48;;;;;;;3.58;2.90;;;;;;;;;;5118923;27;20035;-41
2022/07/14 07:09:15;;;;;;;5.25;3.47;;;;;;;;;;5115099;27;20047;-44
2022/07/14 07:11:41;;;;;;;5.53;4.32;;;;;;;;;;5111003;27;20036;-42
2022/07/14 07:14:07;;;;;;;6.88;3.72;;;;;;;;;;5113324;27;20126;-50
2022/07/14 07:16:32;;;;;;;10.02;5.95;;;;;;;;;;5112898;27;20160;-41
2022/07/14 07:18:58;;;;;;;7.20;4.10;;;;;;;;;;5116345;27;20039;-44
2022/07/14 07:21:23;;;;;;;6.32;3.40;;;;;;;;;;5116933;27;20081;-43
2022/07/14 07:23:49;;;;;;;20.52;5.60;;;;;;;;;;5111347;27;20057;-44
2022/07/14 07:26:15;;;;;;;3.67;2.80;;;;;;;;;;5115651;27;20061;-47
2022/07/14 07:28:40;;;;;;;17.40;3.30;;;;;;;;;;5115549;27;20536;-45
2022/07/14 07:31:05;;;;;;;9.15;2.83;;;;;;;;;;5116703;27;20047;-42
2022/07/14 07:33:32;;;;;;;6.00;2.38;;;;;;;;;;5113899;27;20462;-44
2022/07/14 07:35:58;;;;;;;7.60;3.42;;;;;;;;;;5115455;27;20043;-44
2022/07/14 07:38:23;;;;;;;8.23;3.90;;;;;;;;;;5113552;27;20107;-45
2022/07/14 07:40:49;;;;;;;8.43;4.43;;;;;;;;;;5116949;27;20513;-45
2022/07/14 07:43:14;;;;;;;10.43;3.15;;;;;;;;;;5117206;27;20051;-44
2022/07/14 07:45:40;;;;;;;2.67;2.38;;;;;;;;;;5116033;27;20046;-48
2022/07/14 07:48:06;;;;;;;4.60;2.28;;;;;;;;;;5115657;27;20050;-44
2022/07/14 07:50:32;;;;;;;3.65;2.85;;;;;;;;;;5117296;27;20046;-43
2022/07/14 07:52:57;;;;;;;3.28;2.53;;;;;;;;;;5118254;27;20043;-42
2022/07/14 07:55:23;;;;;;;16.73;5.60;;;;;;;;;;5114708;28;20135;-42
2022/07/14 07:57:48;;;;;;;10.25;6.15;;;;;;;;;;5115046;27;20040;-42
2022/07/14 08:00:14;;;;;;;9.65;8.00;;;;;;;;;;5117144;27;20503;-45
2022/07/14 08:02:50;;;;;;;7.32;5.03;;;;;;;;;;5112630;27;20898;-42
2022/07/14 08:05:16;;;;;;;16.02;9.27;;;;;;;;;;5115793;27;20738;-47
2022/07/14 08:07:42;;;;;;;32.97;12.02;;;;;;;;;;5111847;27;20043;-43
2022/07/14 08:10:07;;;;;;;7.63;5.93;;;;;;;;;;5113245;27;20105;-42
2022/07/14 08:12:32;;;;;;;4.65;3.33;;;;;;;;;;5112138;27;20046;-46
2022/07/14 08:14:57;;;;;;;9.02;2.65;;;;;;;;;;5111981;27;20486;-44
2022/07/14 08:17:23;;;;;;;14.07;8.98;;;;;;;;;;5111293;27;20058;-42
2022/07/14 08:19:49;;;;;;;8.73;6.63;;;;;;;;;;5113424;27;20040;-44
2022/07/14 08:22:15;;;;;;;4.60;3.17;;;;;;;;;;5112646;27;20051;-45
2022/07/14 08:24:40;;;;;;;7.57;3.45;;;;;;;;;;5115067;28;20853;-46
2022/07/14 08:27:06;;;;;;;4.07;3.25;;;;;;;;;;5109059;28;20051;-42
2022/07/14 08:29:31;;;;;;;11.88;3.58;;;;;;;;;;5108294;28;20063;-41
2022/07/14 08:31:57;;;;;;;3.40;3.10;;;;;;;;;;5112364;27;20577;-41
2022/07/14 08:34:22;;;;;;;5.93;2.58;;;;;;;;;;5114019;27;20047;-42
2022/07/14 08:36:48;;;;;;;5.20;2.22;;;;;;;;;;5115132;27;20529;-44
2022/07/14 08:39:14;;;;;;;2.75;2.30;;;;;;;;;;5110190;27;20570;-42
2022/07/14 08:41:39;;;;;;;4.45;3.42;;;;;;;;;;5112447;27;20054;-42
2022/07/14 08:44:04;;;;;;;2.83;1.85;;;;;;;;;;5113385;27;20039;-41
2022/07/14 08:46:33;;;;;;;2.67;2.30;;;;;;;;;;5107730;27;20159;-42
2022/07/14 08:48:59;;;;;;;6.10;1.38;;;;;;;;;;5111792;27;20112;-41
2022/07/14 08:51:24;;;;;;;4.18;2.28;;;;;;;;;;5113863;27;20055;-41
2022/07/14 08:53:50;;;;;;;3.00;1.98;;;;;;;;;;5101194;27;20056;-44
2022/07/14 08:56:15;;;;;;;2.85;1.02;;;;;;;;;;5109858;28;20071;-43
2022/07/14 08:58:42;;;;;;;8.10;2.15;;;;;;;;;;5113980;27;20031;-42
2022/07/14 09:01:07;;;;;;;1.48;1.10;;;;;;;;;;5111800;27;20598;-43
2022/07/14 09:03:33;;;;;;;1.45;0.90;;;;;;;;;;5109672;28;20134;-43
2022/07/14 09:05:58;;;;;;;4.40;2.72;;;;;;;;;;5107120;28;20047;-45
2022/07/14 09:08:23;;;;;;;9.32;6.40;;;;;;;;;;5112598;27;20414;-46
2022/07/14 09:10:49;;;;;;;4.35;2.15;;;;;;;;;;5109897;27;20051;-45
2022/07/14 09:13:18;;;;;;;4.13;1.52;;;;;;;;;;5110711;27;20099;-41
2022/07/14 09:15:45;;;;;;;3.70;1.93;;;;;;;;;;5110719;28;20101;-41
2022/07/14 09:18:17;;;;;;;4.13;1.92;;;;;;;;;;5110721;27;20260;-42
2022/07/14 09:20:42;;;;;;;2.75;1.45;;;;;;;;;;5118044;27;20047;-42
2022/07/14 09:23:08;;;;;;;1.30;0.95;;;;;;;;;;5113551;27;20524;-42
2022/07/14 09:25:39;;;;;;;0.60;0.40;;;;;;;;;;5112088;27;20408;-43
2022/07/14 09:28:06;;;;;;;1.73;1.45;;;;;;;;;;5113218;28;20039;-42
2022/07/14 09:30:32;;;;;;;8.90;1.90;;;;;;;;;;5112845;27;20047;-41
2022/07/14 09:32:58;;;;;;;3.50;1.58;;;;;;;;;;5117938;27;20040;-42
2022/07/14 09:35:44;;;;;;;4.30;1.15;;;;;;;;;;5117437;28;20051;-42
2022/07/14 09:38:22;;;;;;;1.25;0.90;;;;;;;;;;5114778;27;20110;-42
2022/07/14 09:40:48;;;;;;;1.02;0.90;;;;;;;;;;5110929;28;20040;-43
2022/07/14 09:43:13;;;;;;;6.70;1.10;;;;;;;;;;5111034;27;20519;-45
2022/07/14 09:45:39;;;;;;;2.33;0.98;;;;;;;;;;5115654;27;20616;-47
2022/07/14 09:48:09;;;;;;;10.98;1.60;;;;;;;;;;5113159;27;20491;-46
2022/07/14 09:50:48;;;;;;;1.23;0.95;;;;;;;;;;5112702;27;20112;-41
2022/07/14 09:53:22;;;;;;;2.47;0.88;;;;;;;;;;5115897;27;20151;-47
2022/07/14 09:55:51;;;;;;;3.05;0.80;;;;;;;;;;5112729;27;20050;-44
2022/07/14 09:58:18;;;;;;;0.88;0.70;;;;;;;;;;5114434;27;20083;-43
2022/07/14 10:00:52;;;;;;;1.08;0.73;;;;;;;;;;5113080;27;20508;-42
2022/07/14 10:03:17;;;;;;;15.05;1.38;;;;;;;;;;5113097;27;20055;-46
2022/07/14 10:05:43;;;;;;;2.08;1.15;;;;;;;;;;5112893;28;20513;-42
2022/07/14 10:08:09;;;;;;;1.73;1.23;;;;;;;;;;5110004;27;20042;-42
2022/07/14 10:10:35;;;;;;;1.38;1.05;;;;;;;;;;5115313;27;20035;-45
2022/07/14 10:13:01;;;;;;;1.02;0.60;;;;;;;;;;5110329;28;20036;-44
2022/07/14 10:15:27;;;;;;;1.30;0.65;;;;;;;;;;5109801;27;20047;-41
2022/07/14 10:17:52;;;;;;;1.98;1.23;;;;;;;;;;5110781;28;20068;-38
2022/07/14 10:20:19;;;;;;;2.22;1.52;;;;;;;;;;5114818;27;20039;-40
2022/07/14 10:22:45;;;;;;;1.02;0.63;;;;;;;;;;5109118;27;20043;-45
2022/07/14 10:25:11;;;;;;;1.23;0.63;;;;;;;;;;5114057;27;20032;-41
2022/07/14 10:27:40;;;;;;;1.85;1.15;;;;;;;;;;5115507;27;20096;-41
2022/07/14 10:30:06;;;;;;;2.92;1.13;;;;;;;;;;5110869;27;20031;-42
2022/07/14 10:32:46;;;;;;;1.08;0.73;;;;;;;;;;5114596;27;20414;-41
2022/07/14 10:35:31;;;;;;;5.22;1.52;;;;;;;;;;5113110;27;20925;-41
2022/07/14 10:38:02;;;;;;;5.90;1.42;;;;;;;;;;5117033;27;20126;-40
2022/07/14 10:40:47;;;;;;;3.22;1.83;;;;;;;;;;5117929;27;20044;-41
2022/07/14 10:43:16;;;;;;;6.47;1.50;;;;;;;;;;5115360;27;20675;-41
2022/07/14 10:45:47;;;;;;;2.33;1.58;;;;;;;;;;5113034;28;20115;-41
2022/07/14 10:48:31;;;;;;;0.75;0.63;;;;;;;;;;5116658;27;20527;-42
2022/07/14 10:51:15;;;;;;;3.15;1.02;;;;;;;;;;5116309;27;20135;-40
2022/07/14 10:53:59;;;;;;;1.30;0.82;;;;;;;;;;5117083;27;20060;-41
2022/07/14 10:56:26;;;;;;;1.10;0.93;;;;;;;;;;5117728;27;20494;-42
2022/07/14 10:59:11;;;;;;;0.95;0.80;;;;;;;;;;5116543;28;20058;-41
2022/07/14 11:01:36;;;;;;;14.13;0.93;;;;;;;;;;5114948;27;20049;-39
2022/07/14 11:04:01;;;;;;;6.25;1.52;;;;;;;;;;5116587;27;20047;-41
2022/07/14 11:06:27;;;;;;;2.53;1.15;;;;;;;;;;5116633;27;20036;-43
2022/07/14 11:09:11;;;;;;;1.38;1.00;;;;;;;;;;5115208;27;20359;-41
2022/07/14 11:11:37;;;;;;;1.92;1.23;;;;;;;;;;5116065;27;20054;-41
2022/07/14 11:14:12;;;;;;;2.20;1.98;;;;;;;;;;5114760;27;20048;-40
2022/07/14 11:16:48;;;;;;;2.05;1.33;;;;;;;;;;5106192;27;20158;-42
2022/07/14 11:19:24;;;;;;;2.83;1.58;;;;;;;;;;5118731;27;20058;-42
2022/07/14 11:22:08;;;;;;;8.70;3.10;;;;;;;;;;5114286;27;20114;-43
2022/07/14 11:24:33;;;;;;;5.45;4.03;;;;;;;;;;5114605;27;20043;-42
2022/07/14 11:27:18;;;;;;;1.98;1.23;;;;;;;;;;5118111;27;20150;-43
2022/07/14 11:29:45;;;;;;;1.08;0.82;;;;;;;;;;5119191;27;20462;-45
2022/07/14 11:32:28;;;;;;;1.20;0.73;;;;;;;;;;5117205;27;20122;-43
2022/07/14 11:38:06;;;;;;;1.33;0.70;;;;;;;;;;5117679;27;20058;-40
2022/07/14 11:40:49;;;;;;;2.10;0.95;;;;;;;;;;5095531;27;20058;-40
2022/07/14 11:43:30;;;;;;;1.13;0.60;;;;;;;;;;5118173;27;20100;-41
2022/07/14 11:45:55;;;;;;;1.27;0.73;;;;;;;;;;5115502;27;20058;-45
2022/07/14 11:48:21;;;;;;;1.08;0.55;;;;;;;;;;5114071;27;20161;-42
2022/07/14 11:50:48;;;;;;;1.73;1.10;;;;;;;;;;5113522;27;20541;-41
2022/07/14 11:53:15;;;;;;;1.10;0.50;;;;;;;;;;5114827;27;20055;-41
2022/07/14 11:55:40;;;;;;;0.63;0.52;;;;;;;;;;5118031;27;20035;-43
2022/07/14 11:58:09;;;;;;;1.35;0.90;;;;;;;;;;5116171;28;20085;-43
2022/07/14 12:00:35;;;;;;;5.13;1.02;;;;;;;;;;5114928;27;20112;-41
2022/07/14 12:03:01;;;;;;;2.17;1.27;;;;;;;;;;5115417;27;20043;-41
2022/07/14 12:05:27;;;;;;;2.28;1.02;;;;;;;;;;5116489;27;20098;-40
2022/07/14 12:07:54;;;;;;;2.15;0.90;;;;;;;;;;5118296;27;20043;-40
2022/07/14 12:10:34;;;;;;;1.30;0.70;;;;;;;;;;5113556;27;20036;-42
2022/07/14 12:13:00;;;;;;;1.13;0.60;;;;;;;;;;5112021;27;20086;-40
2022/07/14 12:15:26;;;;;;;3.53;1.20;;;;;;;;;;5111668;27;20459;-39
2022/07/14 12:17:52;;;;;;;0.93;0.50;;;;;;;;;;5116225;27;20035;-44
2022/07/14 12:20:18;;;;;;;0.60;0.47;;;;;;;;;;5094705;28;20109;-40
2022/07/14 12:22:44;;;;;;;0.88;0.60;;;;;;;;;;5117665;27;20506;-42
2022/07/14 12:25:24;;;;;;;3.42;1.23;;;;;;;;;;5113011;27;20133;-42
2022/07/14 12:27:50;;;;;;;;;;;;;;;;;;5111636;27;20079;-41
2022/07/14 12:30:15;;;;;;;1.52;0.98;;;;;;;;;;5117764;27;19915;-43
2022/07/14 12:32:41;;;;;;;1.08;0.63;;;;;;;;;;5114073;27;20078;-42
2022/07/14 12:35:06;;;;;;;1.10;0.50;;;;;;;;;;5115540;28;20039;-42
2022/07/14 12:37:33;;;;;;;1.38;0.65;;;;;;;;;;5114813;27;20058;-43
2022/07/14 12:39:59;;;;;;;18.90;0.90;;;;;;;;;;5108959;27;20058;-43
2022/07/14 12:42:24;;;;;;;1.92;0.22;;;;;;;;;;5116266;27;20043;-41
2022/07/14 12:44:57;;;;;;;3.33;1.13;;;;;;;;;;5119412;27;20051;-42
2022/07/14 12:47:23;;;;;;;1.92;0.88;;;;;;;;;;5113225;27;20251;-41
2022/07/14 12:49:49;;;;;;;1.70;0.90;;;;;;;;;;5111536;28;20491;-44
2022/07/14 12:52:14;;;;;;;0.75;0.47;;;;;;;;;;5111049;27;20055;-46
2022/07/14 12:54:40;;;;;;;1.35;1.15;;;;;;;;;;5116674;27;20048;-45
2022/07/14 12:57:07;;;;;;;1.02;0.70;;;;;;;;;;5114147;27;20053;-42
2022/07/14 12:59:34;;;;;;;2.22;0.88;;;;;;;;;;5111255;27;20134;-45
2022/07/14 13:02:00;;;;;;;2.33;1.13;;;;;;;;;;5115625;27;20409;-41
2022/07/14 13:04:39;;;;;;;2.55;0.65;;;;;;;;;;5112099;28;20044;-42
2022/07/14 13:07:27;;;;;;;2.15;1.15;;;;;;;;;;5116110;27;20038;-40
2022/07/14 13:10:05;;;;;;;1.38;0.98;;;;;;;;;;5114880;27;20044;-40
2022/07/14 13:12:31;;;;;;;1.27;0.90;;;;;;;;;;5117107;27;20036;-40
2022/07/14 13:14:57;;;;;;;5.35;1.08;;;;;;;;;;5113150;27;20047;-41
2022/07/14 13:17:40;;;;;;;1.35;0.90;;;;;;;;;;5115621;27;20046;-40
2022/07/14 13:20:26;;;;;;;1.25;0.85;;;;;;;;;;5111105;27;20067;-42
2022/07/14 13:22:58;;;;;;;1.05;0.70;;;;;;;;;;5116002;27;20051;-45
2022/07/14 13:25:23;;;;;;;0.70;0.50;;;;;;;;;;5114953;27;20142;-40
2022/07/14 13:27:48;;;;;;;1.67;1.15;;;;;;;;;;5109453;27;20119;-46
2022/07/14 13:30:13;;;;;;;1.10;0.90;;;;;;;;;;5113634;27;20031;-41
2022/07/14 13:32:39;;;;;;;1.73;0.90;;;;;;;;;;5113838;27;20074;-43
2022/07/14 13:35:04;;;;;;;1.92;1.00;;;;;;;;;;5113446;28;20067;-41
2022/07/14 13:37:30;;;;;;;4.63;1.20;;;;;;;;;;5115596;27;20126;-42
2022/07/14 13:39:55;;;;;;;2.15;1.30;;;;;;;;;;5113589;28;20067;-44
2022/07/14 13:42:20;;;;;;;0.98;0.65;;;;;;;;;;5114904;27;20540;-40
2022/07/14 13:44:46;;;;;;;1.13;0.60;;;;;;;;;;5111899;28;20047;-42
2022/07/14 13:47:11;;;;;;;1.05;0.82;;;;;;;;;;5114971;27;20043;-43
2022/07/14 13:52:20;;;;;;;2.08;0.93;;;;;;;;;;5109169;27;20064;-41
2022/07/14 13:54:45;;;;;;;1.85;0.75;;;;;;;;;;5110163;27;20123;-44
2022/07/14 13:57:11;;;;;;;1.17;0.77;;;;;;;;;;5116441;27;20387;-42
2022/07/14 13:59:38;;;;;;;0.80;0.68;;;;;;;;;;5114312;27;20136;-43
2022/07/14 14:02:04;;;;;;;1.30;0.80;;;;;;;;;;5112733;28;20063;-40
2022/07/14 14:04:29;;;;;;;4.45;0.80;;;;;;;;;;5110301;28;20056;-40
2022/07/14 14:06:55;;;;;;;0.93;0.60;;;;;;;;;;5112235;27;20414;-41
2022/07/14 14:09:22;;;;;;;0.30;0.28;;;;;;;;;;5111445;27;20039;-43
2022/07/14 14:11:47;;;;;;;2.92;0.55;;;;;;;;;;5118309;27;20039;-45
2022/07/14 14:14:13;;;;;;;1.83;0.60;;;;;;;;;;5116936;28;20073;-43
2022/07/14 14:16:39;;;;;;;1.58;0.80;;;;;;;;;;5115464;27;20079;-44
2022/07/14 14:19:04;;;;;;;1.30;0.95;;;;;;;;;;5117035;27;20052;-44
2022/07/14 14:21:31;;;;;;;1.35;1.15;;;;;;;;;;5113997;27;20920;-42
2022/07/14 14:23:56;;;;;;;3.95;0.60;;;;;;;;;;5117458;27;20067;-42
2022/07/14 14:26:22;;;;;;;1.05;0.88;;;;;;;;;;5116256;27;20603;-43
2022/07/14 14:28:48;;;;;;;2.35;1.02;;;;;;;;;;5115317;27;20043;-41
2022/07/14 14:31:13;;;;;;;0.90;0.55;;;;;;;;;;5118181;27;20048;-41
2022/07/14 14:33:38;;;;;;;3.03;1.05;;;;;;;;;;5114962;27;20560;-40
2022/07/14 14:36:04;;;;;;;2.05;1.05;;;;;;;;;;5113798;27;20106;-46
2022/07/14 14:38:29;;;;;;;1.08;0.77;;;;;;;;;;5119988;27;20043;-44
2022/07/14 14:40:55;;;;;;;2.22;0.90;;;;;;;;;;5118838;27;20195;-46
2022/07/14 14:43:20;;;;;;;3.35;0.63;;;;;;;;;;5115274;27;20073;-42
2022/07/14 14:45:46;;;;;;;1.80;1.27;;;;;;;;;;5110408;27;20460;-44
2022/07/14 14:48:11;;;;;;;1.23;0.93;;;;;;;;;;5113621;28;20067;-44
2022/07/14 14:50:37;;;;;;;1.20;0.85;;;;;;;;;;5118214;27;20040;-44
2022/07/14 14:53:03;;;;;;;3.08;1.00;;;;;;;;;;5114301;27;20049;-43